createdAt,value
2016-12-13T00:00:08.789Z,-1.77
2016-12-13T00:01:08.769Z,-1.73
2016-12-13T00:02:08.747Z,-1.72
2016-12-13T00:03:08.735Z,-1.74
2016-12-13T00:04:08.717Z,-1.7
2016-12-13T00:05:08.701Z,-1.76
2016-12-13T00:06:08.682Z,-1.8
2016-12-13T00:07:08.663Z,-1.76
2016-12-13T00:08:08.648Z,-1.79
2016-12-13T00:09:08.639Z,-1.82
2016-12-13T00:10:08.618Z,-1.85
2016-12-13T00:11:08.602Z,-1.9
2016-12-13T00:12:08.580Z,-1.87
2016-12-13T00:13:08.563Z,-1.88
2016-12-13T00:14:08.551Z,-1.88
2016-12-13T00:15:08.529Z,-1.82
2016-12-13T00:16:08.524Z,-1.76
2016-12-13T00:17:08.496Z,-1.69
2016-12-13T00:18:08.784Z,-1.84
2016-12-13T00:19:08.472Z,-1.8
2016-12-13T00:20:08.448Z,-1.66
2016-12-13T00:21:08.444Z,-1.79
2016-12-13T00:22:08.410Z,-1.74
2016-12-13T00:23:08.399Z,-1.82
2016-12-13T00:24:08.680Z,-1.74
2016-12-13T00:25:08.370Z,-1.79
2016-12-13T00:26:08.347Z,-1.76
2016-12-13T00:27:08.337Z,-1.79
2016-12-13T00:28:08.615Z,-1.69
2016-12-13T00:29:08.307Z,-1.79
2016-12-13T00:30:08.279Z,-1.79
2016-12-13T00:31:08.263Z,-1.64
2016-12-13T00:32:08.251Z,-1.73
2016-12-13T00:33:08.233Z,-1.77
2016-12-13T00:34:08.211Z,-1.79
2016-12-13T00:35:08.197Z,-1.74
2016-12-13T00:36:08.182Z,-1.8
2016-12-13T00:37:08.165Z,-1.74
2016-12-13T00:38:08.177Z,-1.77
2016-12-13T00:39:08.131Z,-1.8
2016-12-13T00:40:08.116Z,-1.74
2016-12-13T00:41:08.092Z,-1.74
2016-12-13T00:42:08.109Z,-1.79
2016-12-13T00:43:08.062Z,-1.8
2016-12-13T00:44:08.045Z,-1.77
2016-12-13T00:45:08.029Z,-1.82
2016-12-13T00:46:08.011Z,-1.8
2016-12-13T00:47:07.993Z,-1.79
2016-12-13T00:48:07.979Z,-1.84
2016-12-13T00:49:07.981Z,-1.9
2016-12-13T00:50:07.947Z,-1.79
2016-12-13T00:51:07.924Z,-1.77
2016-12-13T00:52:07.911Z,-1.82
2016-12-13T00:53:07.896Z,-1.84
2016-12-13T00:54:07.879Z,-1.88
2016-12-13T00:55:07.861Z,-1.74
2016-12-13T00:56:07.844Z,-1.85
2016-12-13T00:57:07.824Z,-1.77
2016-12-13T00:58:07.807Z,-1.82
2016-12-13T00:59:07.788Z,-1.79
2016-12-13T01:00:07.776Z,-1.82
2016-12-13T01:01:07.760Z,-1.76
2016-12-13T01:02:07.748Z,-1.76
2016-12-13T01:03:07.729Z,-1.76
2016-12-13T01:04:07.712Z,-1.85
2016-12-13T01:05:07.692Z,-1.74
2016-12-13T01:06:07.673Z,-1.77
2016-12-13T01:07:07.656Z,-1.79
2016-12-13T01:08:07.645Z,-1.74
2016-12-13T01:09:07.626Z,-1.79
2016-12-13T01:10:07.613Z,-1.77
2016-12-13T01:11:07.592Z,-1.73
2016-12-13T01:12:07.576Z,-1.84
2016-12-13T01:13:07.599Z,-1.77
2016-12-13T01:14:07.540Z,-1.7
2016-12-13T01:15:07.526Z,-1.79
2016-12-13T01:16:07.509Z,-1.8
2016-12-13T01:17:07.492Z,-1.8
2016-12-13T01:18:07.471Z,-1.73
2016-12-13T01:19:07.455Z,-1.79
2016-12-13T01:20:07.444Z,-1.72
2016-12-13T01:21:07.420Z,-1.74
2016-12-13T01:22:07.408Z,-1.79
2016-12-13T01:23:07.390Z,-1.72
2016-12-13T01:24:07.368Z,-1.79
2016-12-13T01:25:07.358Z,-1.74
2016-12-13T01:26:07.343Z,-1.79
2016-12-13T01:27:07.320Z,-1.77
2016-12-13T01:28:07.307Z,-1.77
2016-12-13T01:29:07.292Z,-1.79
2016-12-13T01:30:07.270Z,-1.77
2016-12-13T01:31:07.259Z,-1.76
2016-12-13T01:32:07.240Z,-1.8
2016-12-13T01:33:07.527Z,-1.76
2016-12-13T01:34:07.202Z,-1.82
2016-12-13T01:35:07.182Z,-1.77
2016-12-13T01:36:07.170Z,-1.77
2016-12-13T01:37:07.152Z,-1.72
2016-12-13T01:38:07.141Z,-1.76
2016-12-13T01:39:07.124Z,-1.74
2016-12-13T01:40:07.109Z,-1.74
2016-12-13T01:41:07.086Z,-1.76
2016-12-13T01:42:07.070Z,-1.8
2016-12-13T01:43:07.060Z,-1.77
2016-12-13T01:44:07.040Z,-1.77
2016-12-13T01:45:07.019Z,-1.79
2016-12-13T01:46:07.004Z,-1.79
2016-12-13T01:47:06.986Z,-1.84
2016-12-13T01:48:06.979Z,-1.8
2016-12-13T01:49:06.949Z,-1.79
2016-12-13T01:50:06.938Z,-1.79
2016-12-13T01:51:06.919Z,-1.8
2016-12-13T01:52:06.906Z,-1.8
2016-12-13T01:53:06.889Z,-1.8
2016-12-13T01:54:06.869Z,-1.82
2016-12-13T01:55:06.848Z,-1.8
2016-12-13T01:56:06.836Z,-1.8
2016-12-13T01:57:06.816Z,-1.73
2016-12-13T01:58:06.806Z,-1.82
2016-12-13T01:59:06.780Z,-1.73
2016-12-13T02:00:06.767Z,-1.77
2016-12-13T02:01:06.751Z,-1.8
2016-12-13T02:02:06.739Z,-1.72
2016-12-13T02:03:06.720Z,-1.76
2016-12-13T02:04:06.720Z,-1.84
2016-12-13T02:05:06.991Z,-1.73
2016-12-13T02:06:06.668Z,-1.79
2016-12-13T02:07:06.652Z,-1.74
2016-12-13T02:08:06.632Z,-1.74
2016-12-13T02:09:06.622Z,-1.77
2016-12-13T02:10:06.599Z,-1.7
2016-12-13T02:11:06.609Z,-1.76
2016-12-13T02:12:06.565Z,-1.73
2016-12-13T02:13:06.544Z,-1.72
2016-12-13T02:14:06.532Z,-1.7
2016-12-13T02:15:06.517Z,-1.67
2016-12-13T02:16:06.503Z,-1.73
2016-12-13T02:17:06.492Z,-1.72
2016-12-13T02:18:06.770Z,-1.69
2016-12-13T02:19:06.474Z,-1.69
2016-12-13T02:20:06.444Z,-1.62
2016-12-13T02:21:06.415Z,-1.62
2016-12-13T02:22:06.396Z,-1.67
2016-12-13T02:23:06.381Z,-1.7
2016-12-13T02:24:06.367Z,-1.59
2016-12-13T02:25:06.349Z,-1.61
2016-12-13T02:26:06.328Z,-1.73
2016-12-13T02:27:06.313Z,-1.61
2016-12-13T02:28:06.302Z,-1.7
2016-12-13T02:29:06.276Z,-1.58
2016-12-13T02:30:06.267Z,-1.64
2016-12-13T02:31:06.242Z,-1.69
2016-12-13T02:32:06.233Z,-1.66
2016-12-13T02:33:06.216Z,-1.59
2016-12-13T02:34:06.197Z,-1.7
2016-12-13T02:35:06.186Z,-1.62
2016-12-13T02:36:06.160Z,-1.62
2016-12-13T02:37:06.151Z,-1.64
2016-12-13T02:38:06.134Z,-1.67
2016-12-13T02:39:06.120Z,-1.62
2016-12-13T02:40:06.399Z,-1.7
2016-12-13T02:41:06.081Z,-1.67
2016-12-13T02:42:06.071Z,-1.62
2016-12-13T02:43:06.049Z,-1.56
2016-12-13T02:44:06.051Z,-1.67
2016-12-13T02:45:06.014Z,-1.69
2016-12-13T02:46:06.000Z,-1.61
2016-12-13T02:47:05.979Z,-1.66
2016-12-13T02:48:05.961Z,-1.62
2016-12-13T02:49:05.948Z,-1.72
2016-12-13T02:50:05.934Z,-1.7
2016-12-13T02:51:05.909Z,-1.74
2016-12-13T02:52:05.902Z,-1.67
2016-12-13T02:53:05.881Z,-1.72
2016-12-13T02:54:05.859Z,-1.69
2016-12-13T02:55:05.844Z,-1.76
2016-12-13T02:56:05.825Z,-1.69
2016-12-13T02:57:05.814Z,-1.74
2016-12-13T02:58:05.801Z,-1.64
2016-12-13T02:59:05.771Z,-1.69
2016-12-13T03:00:05.762Z,-1.7
2016-12-13T03:01:05.747Z,-1.69
2016-12-13T03:02:05.725Z,-1.69
2016-12-13T03:03:06.013Z,-1.7
2016-12-13T03:04:05.697Z,-1.73
2016-12-13T03:05:05.675Z,-1.7
2016-12-13T03:06:05.660Z,-1.61
2016-12-13T03:07:05.640Z,-1.67
2016-12-13T03:08:05.623Z,-1.61
2016-12-13T03:09:05.613Z,-1.7
2016-12-13T03:10:05.609Z,-1.7
2016-12-13T03:11:05.571Z,-1.74
2016-12-13T03:12:05.560Z,-1.7
2016-12-13T03:13:05.576Z,-1.64
2016-12-13T03:14:05.523Z,-1.64
2016-12-13T03:15:05.514Z,-1.64
2016-12-13T03:16:05.498Z,-1.69
2016-12-13T03:17:05.509Z,-1.62
2016-12-13T03:18:05.462Z,-1.74
2016-12-13T03:19:05.444Z,-1.77
2016-12-13T03:20:05.426Z,-1.77
2016-12-13T03:21:05.407Z,-1.77
2016-12-13T03:22:05.392Z,-1.8
2016-12-13T03:23:05.376Z,-1.79
2016-12-13T03:24:05.358Z,-1.76
2016-12-13T03:25:05.344Z,-1.76
2016-12-13T03:26:05.324Z,-1.67
2016-12-13T03:27:05.312Z,-1.77
2016-12-13T03:28:05.321Z,-1.74
2016-12-13T03:29:05.275Z,-1.76
2016-12-13T03:30:05.287Z,-1.72
2016-12-13T03:31:05.242Z,-1.67
2016-12-13T03:32:05.221Z,-1.8
2016-12-13T03:33:05.206Z,-1.69
2016-12-13T03:34:05.191Z,-1.67
2016-12-13T03:35:05.170Z,-1.73
2016-12-13T03:36:05.165Z,-1.67
2016-12-13T03:37:05.139Z,-1.72
2016-12-13T03:38:05.121Z,-1.7
2016-12-13T03:39:05.112Z,-1.69
2016-12-13T03:40:05.091Z,-1.7
2016-12-13T03:41:05.077Z,-1.74
2016-12-13T03:42:05.354Z,-1.69
2016-12-13T03:43:05.039Z,-1.72
2016-12-13T03:44:05.020Z,-1.69
2016-12-13T03:45:05.012Z,-1.69
2016-12-13T03:46:04.990Z,-1.64
2016-12-13T03:47:04.975Z,-1.74
2016-12-13T03:48:04.961Z,-1.74
2016-12-13T03:49:04.938Z,-1.64
2016-12-13T03:50:04.924Z,-1.72
2016-12-13T03:51:04.905Z,-1.61
2016-12-13T03:52:04.889Z,-1.56
2016-12-13T03:53:04.875Z,-1.56
2016-12-13T03:54:05.165Z,-1.49
2016-12-13T03:55:04.844Z,-1.46
2016-12-13T03:56:04.826Z,-1.48
2016-12-13T03:57:04.802Z,-1.35
2016-12-13T03:58:04.786Z,-1.35
2016-12-13T03:59:04.772Z,-1.27
2016-12-13T04:00:04.759Z,-1.1
2016-12-13T04:01:04.736Z,-1.16
2016-12-13T04:02:04.718Z,-1.19
2016-12-13T04:03:04.704Z,-1.13
2016-12-13T04:04:04.689Z,-1.1
2016-12-13T04:05:04.674Z,-0.97
2016-12-13T04:06:04.661Z,-0.97
2016-12-13T04:07:04.642Z,-0.95
2016-12-13T04:08:04.621Z,-0.94
2016-12-13T04:09:04.611Z,-0.95
2016-12-13T04:10:04.589Z,-0.85
2016-12-13T04:11:04.579Z,-0.92
2016-12-13T04:12:04.549Z,-0.98
2016-12-13T04:13:04.548Z,-0.98
2016-12-13T04:14:04.518Z,-0.97
2016-12-13T04:15:04.503Z,-1.04
2016-12-13T04:16:04.493Z,-1.02
2016-12-13T04:17:04.478Z,-0.89
2016-12-13T04:18:04.453Z,-0.83
2016-12-13T04:19:04.441Z,-0.85
2016-12-13T04:20:04.422Z,-0.78
2016-12-13T04:21:04.407Z,-0.72
2016-12-13T04:22:04.720Z,-0.65
2016-12-13T04:23:04.373Z,-0.58
2016-12-13T04:24:04.359Z,-0.6
2016-12-13T04:25:04.337Z,-0.54
2016-12-13T04:26:04.335Z,-0.47
2016-12-13T04:27:04.302Z,-0.37
2016-12-13T04:28:04.296Z,-0.29
2016-12-13T04:29:04.281Z,-0.28
2016-12-13T04:30:04.261Z,-0.22
2016-12-13T04:31:04.241Z,-0.21
2016-12-13T04:32:04.241Z,-0.16
2016-12-13T04:33:04.210Z,-0.15
2016-12-13T04:34:04.201Z,-0.01
2016-12-13T04:35:04.179Z,-0.01
2016-12-13T04:36:04.169Z,-0.07
2016-12-13T04:37:04.144Z,0.1
2016-12-13T04:38:04.137Z,0.04
2016-12-13T04:39:04.117Z,0.1
2016-12-13T04:40:04.109Z,0.17
2016-12-13T04:41:04.093Z,0.13
2016-12-13T04:42:04.068Z,0.17
2016-12-13T04:43:04.354Z,0.23
2016-12-13T04:44:04.040Z,0.29
2016-12-13T04:45:04.024Z,0.32
2016-12-13T04:46:04.011Z,0.23
2016-12-13T04:47:03.994Z,0.31
2016-12-13T04:48:03.980Z,0.29
2016-12-13T04:49:03.960Z,0.41
2016-12-13T04:50:03.953Z,0.44
2016-12-13T04:51:03.927Z,0.51
2016-12-13T04:52:03.915Z,0.62
2016-12-13T04:53:03.897Z,0.65
2016-12-13T04:54:03.883Z,0.53
2016-12-13T04:55:03.898Z,0.68
2016-12-13T04:56:03.854Z,0.79
2016-12-13T04:57:03.842Z,0.79
2016-12-13T04:58:03.829Z,0.88
2016-12-13T04:59:03.810Z,0.86
2016-12-13T05:00:03.796Z,0.87
2016-12-13T05:01:03.773Z,0.91
2016-12-13T05:02:03.766Z,0.93
2016-12-13T05:03:03.751Z,1
2016-12-13T05:04:03.736Z,1.08
2016-12-13T05:05:03.724Z,1.05
2016-12-13T05:06:03.701Z,1.12
2016-12-13T05:07:03.687Z,1.14
2016-12-13T05:08:03.682Z,1.22
2016-12-13T05:09:03.656Z,1.26
2016-12-13T05:10:03.646Z,1.41
2016-12-13T05:11:03.626Z,1.34
2016-12-13T05:12:03.614Z,1.36
2016-12-13T05:13:03.601Z,1.41
2016-12-13T05:14:03.581Z,1.41
2016-12-13T05:15:03.564Z,1.44
2016-12-13T05:16:03.560Z,1.42
2016-12-13T05:17:03.539Z,1.55
2016-12-13T05:18:03.529Z,1.52
2016-12-13T05:19:03.510Z,1.6
2016-12-13T05:20:03.492Z,1.51
2016-12-13T05:21:03.482Z,1.59
2016-12-13T05:22:03.461Z,1.58
2016-12-13T05:23:03.446Z,1.62
2016-12-13T05:24:03.436Z,1.54
2016-12-13T05:25:03.420Z,1.6
2016-12-13T05:26:03.412Z,1.66
2016-12-13T05:27:03.391Z,1.69
2016-12-13T05:28:03.379Z,1.77
2016-12-13T05:29:03.371Z,1.77
2016-12-13T05:30:03.645Z,1.79
2016-12-13T05:31:03.336Z,1.68
2016-12-13T05:32:03.319Z,1.76
2016-12-13T05:33:03.609Z,1.77
2016-12-13T05:34:03.293Z,1.81
2016-12-13T05:35:03.282Z,1.79
2016-12-13T05:36:03.259Z,1.7
2016-12-13T05:37:03.240Z,1.83
2016-12-13T05:38:03.535Z,1.8
2016-12-13T05:39:03.213Z,1.81
2016-12-13T05:40:03.202Z,1.73
2016-12-13T05:41:03.482Z,1.8
2016-12-13T05:42:03.171Z,1.81
2016-12-13T05:43:03.159Z,1.8
2016-12-13T05:44:03.138Z,1.73
2016-12-13T05:45:03.130Z,1.81
2016-12-13T05:46:03.114Z,1.83
2016-12-13T05:47:03.097Z,1.7
2016-12-13T05:48:03.083Z,1.73
2016-12-13T05:49:03.068Z,1.73
2016-12-13T05:50:03.057Z,1.73
2016-12-13T05:51:03.039Z,1.68
2016-12-13T05:52:03.022Z,1.79
2016-12-13T05:53:03.008Z,1.77
2016-12-13T05:54:02.992Z,1.76
2016-12-13T05:55:03.288Z,1.8
2016-12-13T05:56:02.975Z,1.83
2016-12-13T05:57:02.951Z,1.81
2016-12-13T05:58:02.941Z,1.81
2016-12-13T05:59:02.921Z,1.79
2016-12-13T06:00:02.917Z,1.77
2016-12-13T06:01:03.204Z,1.88
2016-12-13T06:02:02.879Z,1.83
2016-12-13T06:03:02.870Z,1.87
2016-12-13T06:04:02.853Z,1.77
2016-12-13T06:05:02.841Z,1.83
2016-12-13T06:06:02.825Z,1.73
2016-12-13T06:07:02.804Z,1.8
2016-12-13T06:08:02.791Z,1.81
2016-12-13T06:09:02.778Z,1.8
2016-12-13T06:10:02.764Z,1.83
2016-12-13T06:11:02.747Z,1.79
2016-12-13T06:12:02.743Z,1.8
2016-12-13T06:13:03.019Z,1.8
2016-12-13T06:14:03.011Z,1.79
2016-12-13T06:15:02.698Z,1.8
2016-12-13T06:16:02.680Z,1.8
2016-12-13T06:17:02.663Z,1.83
2016-12-13T06:18:02.948Z,1.81
2016-12-13T06:19:02.633Z,1.79
2016-12-13T06:20:02.619Z,1.76
2016-12-13T06:21:02.609Z,1.79
2016-12-13T06:22:02.588Z,1.83
2016-12-13T06:23:02.581Z,1.91
2016-12-13T06:24:02.560Z,1.93
2016-12-13T06:25:02.555Z,1.93
2016-12-13T06:26:02.534Z,1.91
2016-12-13T06:27:02.516Z,1.88
2016-12-13T06:28:02.511Z,1.87
2016-12-13T06:29:02.499Z,1.91
2016-12-13T06:30:02.473Z,2
2016-12-13T06:31:02.466Z,2.02
2016-12-13T06:32:02.451Z,1.99
2016-12-13T06:33:02.435Z,1.99
2016-12-13T06:34:02.415Z,2.05
2016-12-13T06:35:02.411Z,2.05
2016-12-13T06:36:02.390Z,1.98
2016-12-13T06:37:02.377Z,1.98
2016-12-13T06:38:02.357Z,2
2016-12-13T06:39:02.357Z,1.9
2016-12-13T06:40:02.334Z,1.95
2016-12-13T06:41:02.326Z,1.95
2016-12-13T06:42:02.306Z,1.93
2016-12-13T06:43:02.293Z,1.87
2016-12-13T06:44:02.276Z,1.86
2016-12-13T06:45:02.264Z,1.91
2016-12-13T06:46:02.252Z,1.86
2016-12-13T06:47:02.237Z,1.81
2016-12-13T06:48:02.221Z,1.81
2016-12-13T06:49:02.205Z,1.81
2016-12-13T06:50:02.194Z,1.81
2016-12-13T06:51:02.182Z,1.8
2016-12-13T06:52:02.161Z,1.86
2016-12-13T06:53:02.152Z,1.88
2016-12-13T06:54:02.141Z,1.81
2016-12-13T06:55:02.121Z,1.79
2016-12-13T06:56:02.408Z,1.8
2016-12-13T06:57:02.091Z,1.84
2016-12-13T06:58:02.105Z,1.8
2016-12-13T06:59:02.061Z,1.76
2016-12-13T07:00:02.044Z,1.83
2016-12-13T07:01:02.330Z,1.8
2016-12-13T07:02:02.020Z,1.81
2016-12-13T07:03:02.005Z,1.8
2016-12-13T07:04:01.995Z,1.77
2016-12-13T07:05:01.977Z,1.73
2016-12-13T07:06:01.968Z,1.83
2016-12-13T07:07:01.947Z,1.76
2016-12-13T07:08:01.931Z,1.81
2016-12-13T07:09:01.925Z,1.72
2016-12-13T07:10:01.899Z,1.77
2016-12-13T07:11:01.888Z,1.79
2016-12-13T07:12:01.876Z,1.83
2016-12-13T07:13:01.858Z,1.81
2016-12-13T07:14:01.853Z,1.77
2016-12-13T07:15:01.845Z,1.77
2016-12-13T07:16:01.819Z,1.81
2016-12-13T07:17:01.806Z,1.8
2016-12-13T07:18:01.799Z,1.84
2016-12-13T07:19:01.771Z,1.81
2016-12-13T07:20:01.765Z,1.98
2016-12-13T07:21:01.751Z,2
2016-12-13T07:22:01.736Z,1.93
2016-12-13T07:23:01.719Z,1.95
2016-12-13T07:24:01.705Z,2.02
2016-12-13T07:25:01.717Z,2.05
2016-12-13T07:26:01.690Z,1.93
2016-12-13T07:27:01.657Z,1.99
2016-12-13T07:28:01.651Z,1.99
2016-12-13T07:29:01.630Z,2.06
2016-12-13T07:30:01.616Z,2.05
2016-12-13T07:31:01.604Z,2.14
2016-12-13T07:32:01.594Z,2.07
2016-12-13T07:33:01.578Z,2.2
2016-12-13T07:34:01.857Z,2.24
2016-12-13T07:35:01.555Z,2.28
2016-12-13T07:36:01.531Z,2.25
2016-12-13T07:37:01.516Z,2.27
2016-12-13T07:38:01.508Z,2.3
2016-12-13T07:39:01.491Z,2.35
2016-12-13T07:40:01.482Z,2.36
2016-12-13T07:41:01.458Z,2.31
2016-12-13T07:42:01.753Z,2.35
2016-12-13T07:43:01.436Z,2.39
2016-12-13T07:44:01.422Z,2.53
2016-12-13T07:45:01.403Z,2.64
2016-12-13T07:46:01.393Z,2.59
2016-12-13T07:47:01.381Z,2.67
2016-12-13T07:48:01.367Z,2.72
2016-12-13T07:49:01.348Z,2.67
2016-12-13T07:50:01.352Z,2.81
2016-12-13T07:51:01.323Z,2.82
2016-12-13T07:52:01.305Z,2.74
2016-12-13T07:53:01.301Z,2.84
2016-12-13T07:54:01.287Z,2.82
2016-12-13T07:55:01.264Z,2.89
2016-12-13T07:56:01.257Z,2.93
2016-12-13T07:57:01.240Z,2.97
2016-12-13T07:58:01.227Z,2.92
2016-12-13T07:59:01.519Z,2.93
2016-12-13T08:00:01.202Z,2.95
2016-12-13T08:01:01.205Z,2.93
2016-12-13T08:02:01.189Z,3
2016-12-13T08:03:01.170Z,2.9
2016-12-13T08:04:01.145Z,2.87
2016-12-13T08:05:01.128Z,2.95
2016-12-13T08:06:01.119Z,2.97
2016-12-13T08:07:01.099Z,3
2016-12-13T08:08:01.091Z,3.05
2016-12-13T08:09:01.079Z,2.89
2016-12-13T08:10:01.059Z,2.95
2016-12-13T08:11:01.053Z,3
2016-12-13T08:12:01.036Z,2.84
2016-12-13T08:13:01.030Z,2.92
2016-12-13T08:14:01.007Z,2.82
2016-12-13T08:15:00.990Z,2.84
2016-12-13T08:16:00.984Z,2.77
2016-12-13T08:17:00.968Z,2.85
2016-12-13T08:18:00.951Z,2.74
2016-12-13T08:19:01.251Z,2.89
2016-12-13T08:20:00.924Z,2.89
2016-12-13T08:21:00.917Z,2.87
2016-12-13T08:22:01.202Z,2.87
2016-12-13T08:23:00.887Z,2.87
2016-12-13T08:24:00.870Z,2.84
2016-12-13T08:25:00.863Z,2.85
2016-12-13T08:26:00.846Z,2.84
2016-12-13T08:27:00.836Z,2.97
2016-12-13T08:28:00.820Z,2.92
2016-12-13T08:29:00.805Z,2.93
2016-12-13T08:30:00.820Z,2.92
2016-12-13T08:31:00.778Z,2.96
2016-12-13T08:32:00.767Z,2.97
2016-12-13T08:33:00.764Z,2.99
2016-12-13T08:34:00.735Z,2.89
2016-12-13T08:35:00.723Z,2.97
2016-12-13T08:36:00.710Z,2.96
2016-12-13T08:37:00.698Z,3.02
2016-12-13T08:38:00.680Z,3.05
2016-12-13T08:39:00.672Z,3.1
2016-12-13T08:40:00.655Z,3.14
2016-12-13T08:41:00.638Z,3.11
2016-12-13T08:42:00.633Z,3.13
2016-12-13T08:43:00.619Z,3.06
2016-12-13T08:44:00.606Z,3.11
2016-12-13T08:45:00.591Z,3.05
2016-12-13T08:46:00.580Z,3.06
2016-12-13T08:47:00.568Z,3.24
2016-12-13T08:48:00.850Z,3.2
2016-12-13T08:49:00.536Z,3.24
2016-12-13T08:50:00.520Z,3.23
2016-12-13T08:51:00.514Z,3.29
2016-12-13T08:52:00.500Z,3.29
2016-12-13T08:53:00.484Z,3.36
2016-12-13T08:54:00.474Z,3.45
2016-12-13T08:55:00.460Z,3.51
2016-12-13T08:56:00.448Z,3.57
2016-12-13T08:57:00.437Z,3.5
2016-12-13T08:58:00.423Z,3.66
2016-12-13T08:59:00.407Z,3.62
2016-12-13T09:00:00.690Z,3.76
2016-12-13T09:01:00.386Z,3.79
2016-12-13T09:02:00.381Z,3.79
2016-12-13T09:03:00.355Z,3.8
2016-12-13T09:04:00.339Z,3.93
2016-12-13T09:05:00.331Z,3.96
2016-12-13T09:06:00.312Z,3.98
2016-12-13T09:07:00.603Z,3.97
2016-12-13T09:08:00.294Z,4.12
2016-12-13T09:09:00.279Z,4.11
2016-12-13T09:10:00.273Z,4.15
2016-12-13T09:11:00.251Z,4.22
2016-12-13T09:12:00.242Z,4.24
2016-12-13T09:13:00.226Z,4.27
2016-12-13T09:14:00.218Z,4.33
2016-12-13T09:15:00.200Z,4.36
2016-12-13T09:16:00.195Z,4.37
2016-12-13T09:17:00.176Z,4.36
2016-12-13T09:18:00.168Z,4.47
2016-12-13T09:19:00.158Z,4.51
2016-12-13T09:20:00.147Z,4.48
2016-12-13T09:21:00.132Z,4.5
2016-12-13T09:22:00.121Z,4.5
2016-12-13T09:23:00.101Z,4.54
2016-12-13T09:24:00.093Z,4.54
2016-12-13T09:25:00.081Z,4.62
2016-12-13T09:26:00.068Z,4.59
2016-12-13T09:27:00.059Z,4.6
2016-12-13T09:28:00.041Z,4.59
2016-12-13T09:29:00.031Z,4.82
2016-12-13T09:30:00.017Z,4.67
2016-12-13T09:31:00.006Z,4.73
2016-12-13T09:32:00.002Z,4.82
2016-12-13T09:32:59.982Z,4.85
2016-12-13T09:33:59.968Z,4.88
2016-12-13T09:34:59.964Z,4.8
2016-12-13T09:35:59.944Z,4.82
2016-12-13T09:36:59.957Z,4.8
2016-12-13T09:37:59.930Z,4.84
2016-12-13T09:38:59.916Z,4.91
2016-12-13T09:39:59.906Z,4.96
2016-12-13T09:40:59.888Z,4.97
2016-12-13T09:41:59.878Z,5
2016-12-13T09:42:59.890Z,5.04
2016-12-13T09:44:00.459Z,5.09
2016-12-13T09:44:59.840Z,5.09
2016-12-13T09:45:59.832Z,5.04
2016-12-13T09:46:59.816Z,5.13
2016-12-13T09:47:59.801Z,5.09
2016-12-13T09:48:59.794Z,5.09
2016-12-13T09:49:59.784Z,5.09
2016-12-13T09:50:59.770Z,5.09
2016-12-13T09:51:59.753Z,4.99
2016-12-13T09:52:59.749Z,5.04
2016-12-13T09:53:59.734Z,4.99
2016-12-13T09:54:59.716Z,5
2016-12-13T09:56:18.974Z,5.04
2016-12-13T09:56:59.698Z,5.02
2016-12-13T09:57:59.684Z,5.03
2016-12-13T09:58:59.680Z,5.17
2016-12-13T09:59:59.660Z,5.13
2016-12-13T10:00:59.643Z,5.12
2016-12-13T10:01:59.640Z,5.21
2016-12-13T10:02:59.931Z,5.17
2016-12-13T10:03:59.645Z,5.12
2016-12-13T10:04:59.601Z,5.09
2016-12-13T10:05:59.587Z,5.21
2016-12-13T10:06:59.578Z,5.17
2016-12-13T10:07:59.571Z,5.22
2016-12-13T10:08:59.560Z,5.17
2016-12-13T10:09:59.540Z,5.27
2016-12-13T10:10:59.537Z,5.31
2016-12-13T10:11:59.517Z,5.22
2016-12-13T10:12:59.511Z,5.25
2016-12-13T10:13:59.500Z,5.17
2016-12-13T10:14:59.485Z,5.1
2016-12-13T10:15:59.481Z,5.22
2016-12-13T10:16:59.469Z,5.15
2016-12-13T10:17:59.449Z,5.27
2016-12-13T10:18:59.444Z,5.3
2016-12-13T10:19:59.435Z,5.27
2016-12-13T10:20:59.422Z,5.18
2016-12-13T10:21:59.407Z,5.21
2016-12-13T10:22:59.394Z,5.21
2016-12-13T10:23:59.384Z,5.13
2016-12-13T10:24:59.377Z,5.28
2016-12-13T10:25:59.360Z,5.13
2016-12-13T10:26:59.350Z,5.13
2016-12-13T10:27:59.363Z,5.17
2016-12-13T10:28:59.330Z,5.21
2016-12-13T10:29:59.317Z,5.27
2016-12-13T10:30:59.605Z,5.25
2016-12-13T10:31:59.299Z,5.33
2016-12-13T10:32:59.289Z,5.36
2016-12-13T10:33:59.274Z,5.46
2016-12-13T10:34:59.256Z,5.45
2016-12-13T10:35:59.253Z,5.56
2016-12-13T10:36:59.239Z,5.46
2016-12-13T10:37:59.230Z,5.57
2016-12-13T10:38:59.225Z,5.6
2016-12-13T10:39:59.209Z,5.63
2016-12-13T10:40:59.200Z,5.6
2016-12-13T10:41:59.182Z,5.45
2016-12-13T10:42:59.171Z,5.35
2016-12-13T10:43:59.163Z,5.51
2016-12-13T10:44:59.151Z,5.49
2016-12-13T10:45:59.135Z,5.49
2016-12-13T10:46:59.128Z,5.6
2016-12-13T10:47:59.111Z,5.46
2016-12-13T10:48:59.103Z,5.49
2016-12-13T10:49:59.085Z,5.56
2016-12-13T10:50:59.082Z,5.54
2016-12-13T10:51:59.065Z,5.57
2016-12-13T10:52:59.058Z,5.56
2016-12-13T10:53:59.051Z,5.67
2016-12-13T10:54:59.033Z,5.74
2016-12-13T10:55:59.018Z,5.74
2016-12-13T10:56:59.010Z,5.74
2016-12-13T10:57:58.999Z,5.68
2016-12-13T10:58:58.991Z,5.64
2016-12-13T10:59:58.986Z,5.64
2016-12-13T11:00:58.969Z,5.64
2016-12-13T11:01:58.957Z,5.57
2016-12-13T11:02:58.946Z,5.58
2016-12-13T11:03:58.938Z,5.68
2016-12-13T11:04:58.923Z,5.57
2016-12-13T11:05:58.917Z,5.54
2016-12-13T11:06:58.907Z,5.58
2016-12-13T11:07:59.103Z,5.63
2016-12-13T11:08:58.883Z,5.57
2016-12-13T11:09:58.876Z,5.46
2016-12-13T11:10:58.860Z,5.45
2016-12-13T11:11:58.852Z,5.53
2016-12-13T11:12:58.838Z,5.56
2016-12-13T11:13:58.826Z,5.56
2016-12-13T11:14:58.817Z,5.58
2016-12-13T11:15:58.802Z,5.58
2016-12-13T11:16:58.793Z,5.53
2016-12-13T11:17:58.782Z,5.63
2016-12-13T11:18:58.770Z,5.6
2016-12-13T11:19:58.767Z,5.57
2016-12-13T11:20:58.752Z,5.68
2016-12-13T11:21:58.735Z,5.72
2016-12-13T11:22:59.031Z,5.68
2016-12-13T11:23:58.709Z,5.76
2016-12-13T11:24:58.712Z,5.82
2016-12-13T11:25:58.693Z,5.83
2016-12-13T11:26:58.683Z,5.85
2016-12-13T11:27:58.674Z,5.85
2016-12-13T11:28:58.661Z,5.9
2016-12-13T11:29:58.649Z,5.99
2016-12-13T11:30:58.667Z,6.04
2016-12-13T11:31:58.633Z,6.03
2016-12-13T11:32:58.614Z,6.06
2016-12-13T11:33:58.612Z,6.08
2016-12-13T11:34:58.593Z,6.08
2016-12-13T11:35:58.588Z,6.01
2016-12-13T11:36:58.574Z,6.06
2016-12-13T11:37:58.565Z,6.08
2016-12-13T11:38:58.554Z,6.11
2016-12-13T11:39:58.544Z,6.04
2016-12-13T11:40:58.532Z,6.06
2016-12-13T11:41:58.516Z,6.09
2016-12-13T11:42:58.512Z,6.11
2016-12-13T11:43:58.500Z,6.15
2016-12-13T11:44:58.492Z,6.17
2016-12-13T11:45:58.481Z,6.15
2016-12-13T11:46:58.466Z,6.19
2016-12-13T11:47:58.464Z,6.25
2016-12-13T11:48:58.451Z,6.25
2016-12-13T11:49:58.432Z,6.33
2016-12-13T11:50:58.720Z,6.28
2016-12-13T11:51:58.413Z,6.38
2016-12-13T11:52:58.402Z,6.37
2016-12-13T11:53:58.392Z,6.33
2016-12-13T11:54:58.377Z,6.33
2016-12-13T11:55:58.367Z,6.46
2016-12-13T11:56:58.357Z,6.36
2016-12-13T11:57:58.345Z,6.46
2016-12-13T11:58:58.341Z,6.46
2016-12-13T11:59:58.329Z,6.43
2016-12-13T12:00:58.315Z,6.49
2016-12-13T12:01:58.305Z,6.51
2016-12-13T12:02:58.298Z,6.41
2016-12-13T12:03:58.290Z,6.55
2016-12-13T12:04:58.268Z,6.51
2016-12-13T12:05:58.566Z,6.55
2016-12-13T12:06:58.249Z,6.48
2016-12-13T12:07:58.237Z,6.44
2016-12-13T12:08:58.232Z,6.55
2016-12-13T12:09:58.227Z,6.58
2016-12-13T12:10:58.210Z,6.56
2016-12-13T12:11:58.203Z,6.67
2016-12-13T12:12:58.187Z,6.66
2016-12-13T12:13:58.185Z,6.64
2016-12-13T12:14:58.175Z,6.7
2016-12-13T12:15:58.164Z,6.66
2016-12-13T12:16:58.148Z,6.58
2016-12-13T12:17:58.140Z,6.66
2016-12-13T12:18:58.123Z,6.67
2016-12-13T12:19:58.120Z,6.64
2016-12-13T12:20:58.109Z,6.59
2016-12-13T12:21:58.098Z,6.64
2016-12-13T12:22:58.089Z,6.69
2016-12-13T12:23:58.073Z,6.58
2016-12-13T12:24:58.058Z,6.61
2016-12-13T12:25:58.053Z,6.67
2016-12-13T12:26:58.075Z,6.7
2016-12-13T12:27:58.033Z,6.67
2016-12-13T12:28:58.019Z,6.73
2016-12-13T12:29:58.015Z,6.74
2016-12-13T12:30:57.997Z,6.73
2016-12-13T12:31:57.996Z,6.64
2016-12-13T12:32:57.979Z,6.74
2016-12-13T12:33:57.974Z,6.67
2016-12-13T12:34:57.957Z,6.77
2016-12-13T12:35:58.247Z,6.71
2016-12-13T12:36:57.937Z,6.71
2016-12-13T12:37:57.932Z,6.77
2016-12-13T12:38:57.914Z,6.74
2016-12-13T12:39:57.903Z,6.66
2016-12-13T12:40:57.896Z,6.71
2016-12-13T12:41:57.890Z,6.67
2016-12-13T12:42:57.875Z,6.69
2016-12-13T12:43:57.864Z,6.64
2016-12-13T12:44:57.859Z,6.67
2016-12-13T12:45:57.846Z,6.61
2016-12-13T12:46:57.834Z,6.59
2016-12-13T12:47:57.823Z,6.7
2016-12-13T12:48:57.812Z,6.64
2016-12-13T12:49:57.806Z,6.61
2016-12-13T12:50:57.794Z,6.62
2016-12-13T12:51:57.806Z,6.69
2016-12-13T12:52:57.780Z,6.69
2016-12-13T12:53:57.794Z,6.64
2016-12-13T12:54:57.746Z,6.71
2016-12-13T12:55:57.739Z,6.66
2016-12-13T12:56:57.725Z,6.69
2016-12-13T12:57:57.721Z,6.58
2016-12-13T12:58:57.716Z,6.59
2016-12-13T12:59:57.705Z,6.55
2016-12-13T13:00:57.687Z,6.52
2016-12-13T13:01:57.682Z,6.48
2016-12-13T13:02:57.666Z,6.49
2016-12-13T13:03:57.660Z,6.49
2016-12-13T13:04:57.651Z,6.51
2016-12-13T13:05:57.638Z,6.54
2016-12-13T13:06:57.629Z,6.48
2016-12-13T13:07:57.619Z,6.54
2016-12-13T13:08:57.602Z,6.52
2016-12-13T13:09:57.594Z,6.59
2016-12-13T13:10:57.588Z,6.64
2016-12-13T13:11:57.575Z,6.54
2016-12-13T13:12:57.564Z,6.64